TAF KDRO
KDRO 090537Z 0906/1006 VRB03KT P6SM SCT027 OVC029 FM091200 22006KT P6SM VCSH SCT024 BKN040 FM091900 23012G20KT 4SM -SHRASN BR SCT017 OVC023 FM100200 24011KT 4SM SHRA BR SCT014 OVC017 FM100400 22012KT 2SM SHRASN BR SCT010 OVC017=
METAR KDRO
WC KDRO
WS KDRO
WV KDRO